Time;durP1;ratioP1;P1;durP2;ratioP2;P2;SDS_P1;SDS_P2;PMS_P1;PMS_P2;Temp;Humidity;BMP_temperature;BMP_pressure;BME280_temperature;BME280_humidity;BME280_pressure;Samples;Min_cycle;Max_cycle;Signal;HPM_P1;HPM_P2
2023/03/14 00:00:09;;;;;;;7.60;6.80;;;10.80;99.90;;;;;;4879008;29;20701;-70
2023/03/14 00:02:38;;;;;;;12.20;7.10;;;10.90;99.90;;;;;;4878641;29;20712;-70
2023/03/14 00:05:09;;;;;;;11.60;6.83;;;10.90;99.90;;;;;;4879018;29;20271;-69
2023/03/14 00:07:39;;;;;;;7.17;6.47;;;10.90;99.90;;;;;;4878799;29;20220;-71
2023/03/14 00:10:12;;;;;;;12.13;7.00;;;10.90;99.90;;;;;;4886690;29;21083;-67
2023/03/14 00:12:41;;;;;;;6.97;6.07;;;10.90;99.90;;;;;;4880386;29;20711;-68
2023/03/14 00:15:11;;;;;;;7.63;6.53;;;10.90;99.90;;;;;;4897175;29;20198;-68
2023/03/14 00:17:39;;;;;;;7.27;6.57;;;10.90;99.90;;;;;;4897115;29;20324;-68
2023/03/14 00:20:11;;;;;;;7.53;6.40;;;10.90;99.90;;;;;;4897167;29;20212;-68
2023/03/14 00:22:40;;;;;;;6.87;6.13;;;10.90;99.90;;;;;;4897189;29;20292;-69
2023/03/14 00:25:11;;;;;;;7.40;6.33;;;10.90;99.90;;;;;;4896812;29;20231;-68
2023/03/14 00:27:40;;;;;;;7.63;6.63;;;10.90;99.90;;;;;;4897255;29;20214;-73
2023/03/14 00:30:10;;;;;;;6.47;5.87;;;10.90;99.90;;;;;;4897082;29;20199;-74
2023/03/14 00:32:39;;;;;;;8.00;6.40;;;10.90;99.90;;;;;;4896716;29;20811;-69
2023/03/14 00:35:10;;;;;;;7.57;6.10;;;10.90;99.90;;;;;;4896800;29;20201;-69
2023/03/14 00:37:39;;;;;;;8.97;6.50;;;10.90;99.90;;;;;;4896947;29;20755;-72
2023/03/14 00:40:11;;;;;;;11.13;6.03;;;11.00;99.90;;;;;;4895727;29;20215;-69
2023/03/14 00:42:40;;;;;;;7.67;6.13;;;11.00;99.90;;;;;;4878150;29;20582;-70
2023/03/14 00:45:10;;;;;;;7.90;6.50;;;10.90;99.90;;;;;;4877876;29;20737;-71
2023/03/14 00:47:38;;;;;;;7.87;5.90;;;10.80;99.90;;;;;;4877914;29;20197;-68
2023/03/14 00:50:10;;;;;;;8.90;6.60;;;10.80;99.90;;;;;;4861264;29;20214;-70
2023/03/14 00:52:39;;;;;;;9.40;6.60;;;10.80;99.90;;;;;;4861217;29;20717;-72
2023/03/14 00:55:10;;;;;;;7.67;6.90;;;10.80;99.90;;;;;;4877224;29;20209;-70
2023/03/14 00:57:38;;;;;;;7.97;6.50;;;10.80;99.90;;;;;;4877908;29;20205;-75
2023/03/14 01:00:11;;;;;;;7.27;6.57;;;10.80;99.90;;;;;;4877838;29;20210;-70
2023/03/14 01:02:40;;;;;;;7.13;6.40;;;10.70;99.90;;;;;;4877832;29;20207;-71
2023/03/14 01:05:10;;;;;;;8.13;6.97;;;10.70;99.90;;;;;;4877580;29;20280;-71
2023/03/14 01:07:39;;;;;;;8.23;7.00;;;10.70;99.90;;;;;;4861214;29;20604;-69
2023/03/14 01:10:11;;;;;;;11.17;7.77;;;10.70;99.90;;;;;;4885224;29;20215;-67
2023/03/14 01:12:39;;;;;;;7.57;6.53;;;10.70;99.90;;;;;;4896419;29;20316;-73
2023/03/14 01:15:10;;;;;;;7.03;6.13;;;10.70;99.90;;;;;;4879280;29;20214;-70
2023/03/14 01:17:40;;;;;;;7.43;6.60;;;10.70;99.90;;;;;;4896149;29;20238;-70
2023/03/14 01:20:12;;;;;;;9.97;7.43;;;10.70;99.90;;;;;;4879659;29;20955;-68
2023/03/14 01:22:41;;;;;;;8.20;6.70;;;10.80;99.90;;;;;;4879643;29;20235;-75
2023/03/14 01:25:15;;;;;;;7.10;6.50;;;10.70;99.90;;;;;;4895954;29;20197;-71
2023/03/14 01:27:44;;;;;;;6.80;6.10;;;10.80;99.90;;;;;;4879210;29;20232;-68
2023/03/14 01:30:14;;;;;;;7.67;6.27;;;10.80;99.90;;;;;;4879262;29;20221;-68
2023/03/14 01:32:43;;;;;;;9.33;6.57;;;10.70;99.90;;;;;;4879225;29;20265;-69
2023/03/14 01:35:11;;;;;;;8.00;7.20;;;10.70;99.90;;;;;;4896067;29;20214;-67
2023/03/14 01:37:40;;;;;;;8.27;6.73;;;10.80;99.90;;;;;;4879680;29;20681;-71
2023/03/14 01:40:16;;;;;;;10.80;6.97;;;10.70;99.90;;;;;;4878877;29;20676;-69
2023/03/14 01:42:47;;;;;;;8.13;6.43;;;10.70;99.90;;;;;;4879267;29;20324;-68
2023/03/14 01:45:53;;;;;;;7.90;6.43;;;10.70;99.90;;;;;;4895786;29;20205;-69
2023/03/14 01:48:22;;;;;;;7.57;6.67;;;10.70;99.90;;;;;;4879090;29;20222;-70
2023/03/14 01:50:50;;;;;;;8.47;6.27;;;10.70;99.90;;;;;;4895889;29;20277;-68
2023/03/14 01:53:21;;;;;;;8.13;6.33;;;10.60;99.90;;;;;;4895560;29;20328;-72
2023/03/14 01:55:56;;;;;;;8.47;6.30;;;10.60;99.90;;;;;;4878975;29;20216;-72
2023/03/14 01:58:27;;;;;;;7.33;6.63;;;10.60;99.90;;;;;;4878998;29;20362;-71
2023/03/14 02:00:58;;;;;;;7.77;6.97;;;10.60;99.90;;;;;;4895705;29;20204;-70
2023/03/14 02:03:30;;;;;;;7.20;6.03;;;10.60;99.90;;;;;;4878530;29;20219;-70
2023/03/14 02:06:05;;;;;;;7.60;6.53;;;10.60;99.90;;;;;;4879753;29;20672;-74
2023/03/14 02:08:38;;;;;;;8.80;6.83;;;10.50;99.90;;;;;;4882391;29;20213;-72
2023/03/14 02:11:11;;;;;;;9.03;7.20;;;10.50;99.90;;;;;;4882420;29;20272;-69
2023/03/14 02:14:03;;;;;;;8.00;6.73;;;10.40;99.90;;;;;;4899100;29;20716;-69
2023/03/14 02:16:51;;;;;;;8.50;6.83;;;10.40;99.90;;;;;;4899297;29;20708;-69
2023/03/14 02:19:50;;;;;;;8.53;6.40;;;10.40;99.90;;;;;;4899265;29;20235;-67
2023/03/14 02:22:39;;;;;;;7.97;7.13;;;10.30;99.90;;;;;;4899417;29;20288;-73
2023/03/14 02:25:15;;;;;;;8.87;6.87;;;10.40;99.90;;;;;;4899069;29;20287;-69
2023/03/14 02:27:47;;;;;;;23.03;8.57;;;10.40;99.90;;;;;;4882445;29;20223;-68
2023/03/14 02:30:18;;;;;;;10.60;7.43;;;10.40;99.90;;;;;;4882436;29;20215;-69
2023/03/14 02:32:51;;;;;;;11.83;7.43;;;10.40;99.90;;;;;;4882298;29;20229;-69
2023/03/14 02:35:23;;;;;;;8.47;7.67;;;10.30;99.90;;;;;;4898933;29;20358;-69
2023/03/14 02:37:57;;;;;;;8.80;6.90;;;10.30;99.90;;;;;;4882172;29;20210;-69
2023/03/14 02:40:29;;;;;;;7.60;6.53;;;10.30;99.90;;;;;;4877987;29;20273;-69
2023/03/14 02:42:59;;;;;;;8.47;7.27;;;10.30;99.90;;;;;;4888416;29;20210;-67
2023/03/14 02:45:43;;;;;;;7.77;6.93;;;10.30;99.90;;;;;;4863407;29;20218;-73
2023/03/14 02:48:22;;;;;;;8.03;6.33;;;10.30;99.90;;;;;;4878845;29;20668;-69
2023/03/14 02:50:54;;;;;;;8.60;6.90;;;10.30;99.90;;;;;;4878968;29;20566;-72
2023/03/14 02:53:26;;;;;;;10.37;6.50;;;10.30;99.90;;;;;;4878747;29;20587;-68
2023/03/14 02:55:57;;;;;;;7.70;6.80;;;10.40;99.90;;;;;;4878798;29;20705;-68
2023/03/14 02:58:28;;;;;;;11.53;6.77;;;10.30;99.90;;;;;;4878733;29;20646;-72
2023/03/14 03:01:06;;;;;;;9.13;5.40;;;10.40;99.90;;;;;;4878918;29;20342;-71
2023/03/14 03:03:35;;;;;;;8.53;6.50;;;10.40;99.90;;;;;;4879830;29;20213;-75
2023/03/14 03:06:04;;;;;;;7.37;6.00;;;10.40;99.90;;;;;;4880010;29;20226;-70
2023/03/14 03:08:34;;;;;;;9.17;6.67;;;10.40;99.90;;;;;;4879975;29;20203;-69
2023/03/14 03:11:03;;;;;;;8.37;6.60;;;10.40;99.90;;;;;;4894128;29;20659;-68
2023/03/14 03:13:35;;;;;;;8.87;6.50;;;10.40;99.90;;;;;;4881641;29;20261;-69
2023/03/14 03:16:06;;;;;;;7.83;6.80;;;10.40;99.90;;;;;;4881442;29;20693;-70
2023/03/14 03:18:36;;;;;;;6.80;6.10;;;10.40;99.90;;;;;;4881199;29;20241;-70
2023/03/14 03:21:08;;;;;;;8.70;6.40;;;10.40;99.90;;;;;;4881536;29;20240;-67
2023/03/14 03:23:37;;;;;;;9.37;6.73;;;10.30;99.90;;;;;;4898212;29;20206;-68
2023/03/14 03:26:07;;;;;;;9.27;6.83;;;10.30;99.90;;;;;;4880942;29;20225;-70
2023/03/14 03:28:37;;;;;;;9.70;6.50;;;10.30;99.90;;;;;;4881364;29;20209;-68
2023/03/14 03:31:10;;;;;;;7.73;5.53;;;10.30;99.90;;;;;;4881282;29;20296;-71
2023/03/14 03:33:40;;;;;;;7.87;5.80;;;10.30;99.90;;;;;;4881026;29;20327;-68
2023/03/14 03:36:10;;;;;;;6.47;5.80;;;10.30;99.90;;;;;;4881327;29;20211;-68
2023/03/14 03:38:40;;;;;;;8.67;6.33;;;10.30;99.90;;;;;;4880876;29;20217;-68
2023/03/14 03:41:10;;;;;;;6.50;5.77;;;10.30;99.90;;;;;;4880898;29;20246;-71
2023/03/14 03:43:40;;;;;;;8.80;6.37;;;10.30;99.90;;;;;;4880896;29;20205;-68
2023/03/14 03:46:11;;;;;;;8.43;5.67;;;10.40;99.90;;;;;;4881031;29;20654;-69
2023/03/14 03:48:40;;;;;;;8.37;6.23;;;10.30;99.90;;;;;;4897711;29;20680;-70
2023/03/14 03:51:11;;;;;;;8.33;6.17;;;10.40;99.90;;;;;;4880851;29;20207;-71
2023/03/14 03:53:40;;;;;;;6.27;5.63;;;10.40;99.90;;;;;;4897621;29;20403;-67
2023/03/14 03:56:12;;;;;;;9.10;5.80;;;10.40;99.90;;;;;;4880856;29;20211;-68
2023/03/14 03:58:43;;;;;;;9.10;5.80;;;10.40;99.90;;;;;;4880921;29;20311;-68
2023/03/14 04:01:12;;;;;;;6.70;6.00;;;10.40;99.90;;;;;;4880058;29;20212;-69
2023/03/14 04:03:41;;;;;;;6.53;5.47;;;10.40;99.90;;;;;;4880460;29;20221;-71
2023/03/14 04:06:12;;;;;;;6.63;5.97;;;10.40;99.90;;;;;;4880877;29;20215;-74
2023/03/14 04:08:44;;;;;;;8.90;6.03;;;10.40;99.90;;;;;;4880647;29;20237;-68
2023/03/14 04:11:24;;;;;;;7.60;5.80;;;10.50;99.90;;;;;;4880292;29;20214;-67
2023/03/14 04:14:01;;;;;;;6.53;5.27;;;10.50;99.90;;;;;;4897268;29;20688;-66
2023/03/14 04:16:31;;;;;;;8.83;5.43;;;10.50;99.90;;;;;;4880341;29;20243;-66
2023/03/14 04:19:05;;;;;;;7.57;5.33;;;10.50;99.90;;;;;;4880613;29;20260;-69
2023/03/14 04:21:34;;;;;;;9.47;5.37;;;10.50;99.90;;;;;;4897368;29;20201;-67
2023/03/14 04:24:03;;;;;;;7.37;5.40;;;10.50;99.90;;;;;;4897178;29;20272;-73
2023/03/14 04:26:35;;;;;;;6.60;5.27;;;10.50;99.90;;;;;;4880322;29;20201;-66
2023/03/14 04:29:05;;;;;;;7.40;5.37;;;10.50;99.90;;;;;;4879422;29;20206;-67
2023/03/14 04:31:34;;;;;;;8.10;5.70;;;10.50;99.90;;;;;;4897205;29;20288;-69
2023/03/14 04:34:02;;;;;;;6.53;5.23;;;10.50;99.90;;;;;;4880840;29;20238;-66
2023/03/14 04:36:38;;;;;;;8.53;5.43;;;10.50;99.90;;;;;;4880445;29;20198;-70
2023/03/14 04:39:12;;;;;;;5.70;5.20;;;10.50;99.90;;;;;;4880295;29;20208;-67
2023/03/14 04:41:47;;;;;;;7.43;5.20;;;10.60;99.90;;;;;;4880447;29;20213;-67
2023/03/14 04:44:17;;;;;;;7.07;5.13;;;10.50;99.90;;;;;;4896280;29;20573;-74
2023/03/14 04:46:46;;;;;;;7.23;5.20;;;10.60;99.90;;;;;;4862261;29;20213;-67
2023/03/14 04:49:15;;;;;;;8.07;5.10;;;10.60;99.90;;;;;;4862146;29;20220;-71
2023/03/14 04:51:44;;;;;;;6.83;5.60;;;10.60;99.90;;;;;;4862281;29;20199;-72
2023/03/14 04:54:12;;;;;;;8.13;5.03;;;10.60;99.90;;;;;;4861745;29;20319;-69
2023/03/14 04:56:41;;;;;;;7.43;5.10;;;10.60;99.90;;;;;;4862054;29;20700;-70
2023/03/14 04:59:10;;;;;;;5.53;5.00;;;10.60;99.90;;;;;;4861912;29;20205;-67
2023/03/14 05:01:43;;;;;;;6.27;4.37;;;10.70;99.90;;;;;;4874100;29;20308;-71
2023/03/14 05:04:26;;;;;;;6.43;4.50;;;10.60;99.90;;;;;;4896197;29;20240;-66
2023/03/14 05:07:04;;;;;;;5.83;5.10;;;10.60;99.90;;;;;;4876227;29;20225;-73
2023/03/14 05:09:53;;;;;;;8.07;5.60;;;10.60;99.90;;;;;;4892479;29;20297;-68
2023/03/14 05:12:28;;;;;;;6.30;5.20;;;10.60;99.90;;;;;;4862007;29;20563;-70
2023/03/14 05:15:22;;;;;;;6.40;5.23;;;10.60;99.90;;;;;;4876365;29;20714;-70
2023/03/14 05:18:07;;;;;;;6.77;5.07;;;10.70;99.90;;;;;;4880129;29;20242;-67
2023/03/14 05:21:05;;;;;;;6.67;5.27;;;10.60;99.90;;;;;;4802751;29;20255;-70
2023/03/14 05:24:06;;;;;;;7.70;4.30;;;10.60;99.90;;;;;;4802682;29;20209;-70
2023/03/14 05:27:04;;;;;;;5.73;5.03;;;10.50;99.90;;;;;;4749040;30;20218;-76
2023/03/14 05:30:02;;;;;;;7.83;5.30;;;10.60;99.90;;;;;;4731433;30;20601;-65
2023/03/14 05:32:59;;;;;;;4.77;4.37;;;10.60;99.90;;;;;;4748965;30;20244;-71
2023/03/14 05:35:44;;;;;;;6.77;5.57;;;10.60;99.90;;;;;;4747934;30;20262;-67
2023/03/14 05:38:43;;;;;;;6.03;5.30;;;10.60;99.90;;;;;;4716895;30;20230;-69
2023/03/14 05:41:17;;;;;;;7.30;5.37;;;10.60;99.90;;;;;;4731537;30;20681;-69
2023/03/14 05:44:04;;;;;;;8.57;5.20;;;10.70;99.90;;;;;;4731125;30;20834;-67
2023/03/14 05:46:36;;;;;;;5.83;4.80;;;10.80;99.90;;;;;;4730556;30;20219;-69
2023/03/14 05:49:25;;;;;;;8.80;5.00;;;10.80;99.90;;;;;;4731326;30;20213;-67
2023/03/14 05:52:14;;;;;;;6.60;5.27;;;10.70;99.90;;;;;;4731394;30;20353;-67
2023/03/14 05:55:07;;;;;;;7.47;5.53;;;10.80;99.90;;;;;;4713487;30;20248;-68
2023/03/14 05:58:11;;;;;;;6.20;5.57;;;10.80;99.90;;;;;;4710969;30;20221;-73
2023/03/14 06:01:03;;;;;;;5.90;5.00;;;10.70;99.90;;;;;;4716298;30;20302;-69
2023/03/14 06:03:53;;;;;;;5.37;4.63;;;10.80;99.90;;;;;;4751585;30;20215;-68
2023/03/14 06:06:22;;;;;;;5.90;5.30;;;10.70;99.90;;;;;;4779553;29;20210;-69
2023/03/14 06:08:53;;;;;;;5.67;5.10;;;10.70;99.90;;;;;;4823486;29;20829;-67
2023/03/14 06:11:21;;;;;;;8.13;4.70;;;10.80;99.90;;;;;;4823618;29;20303;-68
2023/03/14 06:13:51;;;;;;;6.80;5.70;;;10.80;99.90;;;;;;4838627;29;20314;-69
2023/03/14 06:16:20;;;;;;;5.23;4.67;;;10.80;99.90;;;;;;4823114;29;20699;-68
2023/03/14 06:18:52;;;;;;;4.97;4.47;;;10.90;99.90;;;;;;4810590;29;20220;-68
2023/03/14 06:21:23;;;;;;;5.90;5.10;;;10.90;99.90;;;;;;4805024;29;20216;-73
2023/03/14 06:23:54;;;;;;;8.83;5.23;;;10.90;99.90;;;;;;4804130;29;20237;-72
2023/03/14 06:26:24;;;;;;;5.93;5.13;;;10.90;99.90;;;;;;4804971;29;20220;-66
2023/03/14 06:28:53;;;;;;;10.20;6.00;;;11.00;99.90;;;;;;4804639;29;20220;-67
2023/03/14 06:31:30;;;;;;;5.80;4.73;;;11.00;99.90;;;;;;4813163;29;20282;-75
2023/03/14 06:34:02;;;;;;;6.00;4.67;;;11.10;99.90;;;;;;4878589;29;20209;-67
2023/03/14 06:36:32;;;;;;;7.23;4.80;;;11.00;99.90;;;;;;4879212;29;20758;-68
2023/03/14 06:39:03;;;;;;;6.40;5.07;;;11.00;99.90;;;;;;4879096;29;20602;-68
2023/03/14 06:41:34;;;;;;;6.53;5.20;;;11.00;99.90;;;;;;4879432;29;20212;-67
2023/03/14 06:44:05;;;;;;;6.33;4.37;;;11.00;99.90;;;;;;4896075;29;20201;-68
2023/03/14 06:46:34;;;;;;;8.33;5.03;;;10.90;99.90;;;;;;4871942;29;20688;-69
2023/03/14 06:49:06;;;;;;;5.93;4.23;;;10.90;99.90;;;;;;4860871;29;20576;-67
2023/03/14 06:51:34;;;;;;;9.07;5.13;;;10.90;99.90;;;;;;4860875;29;20212;-67
2023/03/14 06:54:07;;;;;;;16.23;6.07;;;11.00;99.90;;;;;;4864257;29;20206;-67
2023/03/14 06:56:36;;;;;;;19.97;5.50;;;11.10;99.90;;;;;;4864058;29;20273;-67
2023/03/14 06:59:05;;;;;;;9.37;5.13;;;11.10;99.90;;;;;;4864288;29;20258;-69
2023/03/14 07:01:35;;;;;;;6.70;5.13;;;11.10;99.90;;;;;;4871610;29;20269;-69
2023/03/14 07:04:11;;;;;;;5.40;4.47;;;11.20;99.90;;;;;;4863761;29;20206;-68
2023/03/14 07:06:46;;;;;;;6.73;4.97;;;11.30;99.90;;;;;;4864198;29;20206;-67
2023/03/14 07:09:17;;;;;;;8.37;4.57;;;11.30;99.90;;;;;;4863960;29;20302;-71
2023/03/14 07:11:54;;;;;;;7.53;4.40;;;11.40;99.90;;;;;;4863948;29;20318;-69
2023/03/14 07:14:24;;;;;;;8.43;5.20;;;11.40;99.90;;;;;;4880436;29;20200;-68
2023/03/14 07:16:52;;;;;;;5.80;5.00;;;11.50;99.90;;;;;;4863734;29;20278;-67
2023/03/14 07:19:21;;;;;;;5.90;4.80;;;11.60;99.90;;;;;;4863943;29;20207;-67
2023/03/14 07:21:50;;;;;;;4.90;4.20;;;11.50;99.90;;;;;;4899263;29;20214;-67
2023/03/14 07:24:25;;;;;;;7.50;4.87;;;11.50;99.90;;;;;;4882158;29;20234;-68
2023/03/14 07:26:54;;;;;;;7.03;5.17;;;11.40;99.90;;;;;;4882221;29;20311;-67
2023/03/14 07:29:22;;;;;;;4.87;4.07;;;11.50;99.90;;;;;;4898866;29;20255;-68
2023/03/14 07:31:51;;;;;;;6.47;4.87;;;11.50;99.90;;;;;;4882165;29;20680;-68
2023/03/14 07:34:21;;;;;;;13.70;6.33;;;11.60;99.90;;;;;;4882075;29;20262;-67
2023/03/14 07:36:50;;;;;;;9.03;5.50;;;11.70;99.90;;;;;;4881901;29;20694;-68
2023/03/14 07:39:19;;;;;;;6.57;4.73;;;11.70;99.90;;;;;;4882000;29;20648;-67
2023/03/14 07:42:21;;;;;;;6.80;4.80;;;11.80;99.90;;;;;;4804624;29;20674;-68
2023/03/14 07:45:12;;;;;;;6.87;4.20;;;11.80;99.90;;;;;;4789093;29;20225;-68
2023/03/14 07:47:40;;;;;;;7.37;5.20;;;11.90;99.90;;;;;;4804530;29;20210;-67
2023/03/14 07:50:11;;;;;;;6.07;4.97;;;12.00;99.90;;;;;;4804368;29;20210;-68
2023/03/14 07:52:39;;;;;;;7.40;4.90;;;12.10;99.90;;;;;;4804066;29;20229;-67
2023/03/14 07:55:09;;;;;;;5.97;4.47;;;12.10;99.90;;;;;;4804129;29;20388;-67
2023/03/14 07:57:39;;;;;;;6.20;4.37;;;12.10;99.90;;;;;;4804288;29;20783;-68
2023/03/14 08:00:10;;;;;;;11.20;5.17;;;12.10;99.90;;;;;;4803927;29;20242;-68
2023/03/14 08:02:41;;;;;;;4.47;4.07;;;12.10;99.90;;;;;;4804049;29;20266;-67
2023/03/14 08:05:10;;;;;;;5.43;4.33;;;12.10;99.90;;;;;;4803262;29;20634;-68
2023/03/14 08:07:39;;;;;;;9.57;6.80;;;12.10;99.90;;;;;;4804175;29;20215;-68
2023/03/14 08:10:09;;;;;;;6.30;4.67;;;12.10;99.90;;;;;;4804048;29;20214;-68
2023/03/14 08:12:39;;;;;;;9.73;6.63;;;12.30;99.90;;;;;;4804087;29;20228;-67
2023/03/14 08:15:08;;;;;;;5.97;4.37;;;12.20;99.90;;;;;;4803727;29;20761;-67
2023/03/14 08:17:37;;;;;;;9.43;5.27;;;12.30;99.90;;;;;;4824312;29;20242;-67
2023/03/14 08:20:08;;;;;;;6.33;4.80;;;12.40;99.90;;;;;;4879451;29;20241;-67
2023/03/14 08:22:38;;;;;;;8.77;7.30;;;12.40;99.90;;;;;;4894224;29;20653;-69
2023/03/14 08:25:07;;;;;;;21.97;6.53;;;12.70;99.90;;;;;;4898096;29;20211;-67
2023/03/14 08:27:38;;;;;;;6.27;5.40;;;12.80;99.90;;;;;;4898080;29;20207;-67
2023/03/14 08:30:11;;;;;;;5.53;4.77;;;12.90;99.90;;;;;;4898018;29;20203;-67
2023/03/14 08:32:40;;;;;;;5.80;4.47;;;12.80;99.90;;;;;;4897797;29;20215;-71
2023/03/14 08:35:10;;;;;;;4.97;4.00;;;12.80;99.90;;;;;;4897751;29;20555;-66
2023/03/14 08:37:39;;;;;;;5.00;4.20;;;12.80;99.90;;;;;;4897847;29;20238;-66
2023/03/14 08:40:09;;;;;;;4.80;4.37;;;13.00;99.90;;;;;;4897654;29;20210;-71
2023/03/14 08:42:39;;;;;;;5.97;4.60;;;13.10;99.90;;;;;;4897732;29;20250;-67
2023/03/14 08:45:12;;;;;;;5.17;4.67;;;13.20;99.90;;;;;;4897372;29;20212;-68
2023/03/14 08:47:41;;;;;;;5.23;4.73;;;13.30;99.90;;;;;;4881052;29;20222;-67
2023/03/14 08:50:11;;;;;;;4.70;4.07;;;13.30;99.90;;;;;;4897603;29;20195;-68
2023/03/14 08:52:43;;;;;;;5.30;3.90;;;13.40;99.90;;;;;;4881268;29;20207;-68
2023/03/14 08:55:12;;;;;;;4.30;3.90;;;13.40;99.90;;;;;;4878705;29;20204;-68
2023/03/14 08:57:41;;;;;;;5.13;4.63;;;13.40;99.90;;;;;;4878715;29;20766;-67
2023/03/14 09:00:14;;;;;;;5.33;4.00;;;13.60;99.90;;;;;;4878786;29;20292;-68
2023/03/14 09:02:43;;;;;;;5.10;4.30;;;13.60;99.90;;;;;;4878626;29;20219;-67
2023/03/14 09:05:13;;;;;;;6.37;5.43;;;13.50;99.90;;;;;;4872043;29;20219;-69
2023/03/14 09:07:42;;;;;;;5.00;4.23;;;13.70;99.90;;;;;;4876657;29;20226;-69
2023/03/14 09:10:12;;;;;;;5.67;4.50;;;13.90;99.90;;;;;;4878291;29;20271;-67
2023/03/14 09:12:40;;;;;;;5.40;4.47;;;14.00;99.90;;;;;;4878363;29;20207;-68
2023/03/14 09:15:11;;;;;;;5.17;4.70;;;14.10;99.90;;;;;;4877865;29;20227;-68
2023/03/14 09:17:40;;;;;;;5.33;4.27;;;14.40;99.90;;;;;;4878084;29;20745;-69
2023/03/14 09:20:10;;;;;;;5.93;4.80;;;14.50;99.90;;;;;;4878302;29;20580;-67
2023/03/14 09:22:39;;;;;;;5.03;4.57;;;14.50;99.90;;;;;;4893013;29;20219;-68
2023/03/14 09:25:08;;;;;;;4.93;4.43;;;14.70;99.90;;;;;;4896791;29;20693;-68
2023/03/14 09:27:37;;;;;;;5.70;4.03;;;14.60;99.90;;;;;;4896886;29;20208;-72
2023/03/14 09:30:06;;;;;;;5.13;4.50;;;14.40;99.90;;;;;;4896923;29;20594;-67
2023/03/14 09:32:37;;;;;;;5.60;5.00;;;14.50;99.90;;;;;;4896837;29;20203;-67
2023/03/14 09:35:06;;;;;;;5.17;4.57;;;14.50;99.90;;;;;;4896697;29;20208;-68
2023/03/14 09:37:35;;;;;;;5.20;4.70;;;14.50;99.90;;;;;;4896458;29;20231;-67
2023/03/14 09:40:10;;;;;;;6.70;4.97;;;14.30;99.90;;;;;;4896579;29;20230;-69
2023/03/14 09:42:40;;;;;;;4.90;4.50;;;14.40;99.90;;;;;;4896847;29;20226;-68
2023/03/14 09:45:16;;;;;;;4.77;4.33;;;14.30;99.90;;;;;;4879628;29;20644;-67
2023/03/14 09:47:48;;;;;;;6.37;4.80;;;14.10;99.90;;;;;;4896726;29;20199;-69
2023/03/14 09:50:27;;;;;;;8.93;5.10;;;14.10;99.90;;;;;;4896648;29;20282;-68
2023/03/14 09:53:02;;;;;;;13.40;7.43;;;14.10;99.90;;;;;;4896135;29;20295;-70
2023/03/14 09:55:31;;;;;;;23.63;8.77;;;14.40;99.90;;;;;;4896381;29;20203;-68
2023/03/14 09:58:05;;;;;;;5.87;4.67;;;15.10;99.90;;;;;;4896417;29;20265;-67
2023/03/14 10:00:34;;;;;;;5.13;4.73;;;15.40;99.90;;;;;;4879661;29;20212;-71
2023/03/14 10:03:26;;;;;;;4.57;4.17;;;15.50;99.90;;;;;;4896433;29;20204;-69
2023/03/14 10:05:57;;;;;;;13.83;10.17;;;15.50;99.90;;;;;;4896389;29;20284;-68
2023/03/14 10:08:25;;;;;;;10.77;6.27;;;15.50;99.90;;;;;;4896181;29;20207;-68
2023/03/14 10:10:55;;;;;;;22.67;15.67;;;15.50;99.90;;;;;;4896414;29;20207;-68
2023/03/14 10:13:25;;;;;;;9.57;4.67;;;15.40;99.90;;;;;;4879838;29;21094;-67
2023/03/14 10:15:59;;;;;;;4.87;4.13;;;15.10;99.90;;;;;;4896483;29;20207;-69
2023/03/14 10:18:34;;;;;;;6.40;5.77;;;15.00;99.90;;;;;;4896062;29;20252;-67
2023/03/14 10:21:07;;;;;;;4.63;4.13;;;15.60;99.90;;;;;;4896071;29;20202;-68
2023/03/14 10:23:36;;;;;;;5.97;4.37;;;16.60;98.20;;;;;;4896094;29;20213;-67
2023/03/14 10:26:09;;;;;;;5.03;4.10;;;16.90;95.20;;;;;;4896237;29;20631;-67
2023/03/14 10:28:43;;;;;;;6.77;3.80;;;17.50;88.60;;;;;;4899791;29;20243;-67
2023/03/14 10:31:12;;;;;;;4.90;4.10;;;16.50;92.00;;;;;;4900078;29;20198;-67
2023/03/14 10:33:42;;;;;;;9.93;7.60;;;16.40;94.40;;;;;;4899783;29;20559;-67
2023/03/14 10:36:22;;;;;;;4.40;3.60;;;16.50;94.30;;;;;;4899958;29;20209;-69
2023/03/14 10:38:53;;;;;;;6.40;3.93;;;16.50;93.00;;;;;;4899742;29;20626;-67
2023/03/14 10:41:26;;;;;;;5.93;5.10;;;15.90;95.50;;;;;;4899824;29;20223;-67
2023/03/14 10:43:59;;;;;;;3.73;3.20;;;15.80;97.80;;;;;;4899610;29;20738;-67
2023/03/14 10:46:33;;;;;;;4.23;3.40;;;16.00;95.80;;;;;;4899705;29;20206;-67
2023/03/14 10:49:29;;;;;;;3.50;3.20;;;16.60;93.20;;;;;;4899902;29;20594;-67
2023/03/14 10:52:03;;;;;;;5.40;3.17;;;16.20;93.40;;;;;;4899244;29;20205;-67
2023/03/14 10:54:32;;;;;;;5.33;3.23;;;16.20;93.80;;;;;;4899499;29;20213;-67
2023/03/14 10:57:05;;;;;;;5.20;3.30;;;15.80;95.40;;;;;;4899442;29;20303;-67
2023/03/14 10:59:40;;;;;;;5.67;3.93;;;15.50;97.80;;;;;;4899590;29;20205;-68
2023/03/14 11:02:27;;;;;;;4.40;3.87;;;15.40;97.80;;;;;;4882372;29;20621;-67
2023/03/14 11:05:10;;;;;;;5.53;3.63;;;15.40;96.70;;;;;;4899074;29;20209;-67
2023/03/14 11:07:41;;;;;;;19.80;11.87;;;15.70;98.30;;;;;;4899172;29;20277;-67
2023/03/14 11:10:20;;;;;;;10.30;5.67;;;16.30;96.30;;;;;;4899159;29;20205;-67
2023/03/14 11:13:02;;;;;;;5.53;4.47;;;16.40;92.70;;;;;;4899129;29;20205;-66
2023/03/14 11:15:35;;;;;;;4.57;3.90;;;16.50;90.80;;;;;;4899155;29;20213;-68
2023/03/14 11:18:35;;;;;;;5.23;2.53;;;16.40;91.60;;;;;;4899098;29;20246;-66
2023/03/14 11:21:13;;;;;;;4.10;3.50;;;16.50;89.50;;;;;;4901059;29;20220;-68
2023/03/14 11:23:47;;;;;;;3.60;3.30;;;16.70;89.90;;;;;;4918080;29;20220;-68
2023/03/14 11:26:29;;;;;;;3.47;3.17;;;17.80;81.30;;;;;;4918456;29;20580;-68
2023/03/14 11:28:59;;;;;;;2.77;2.33;;;19.70;69.90;;;;;;4917837;29;20221;-69
2023/03/14 11:31:30;;;;;;;8.73;5.13;;;19.60;61.80;;;;;;4918026;29;20230;-67
2023/03/14 11:34:05;;;;;;;7.57;5.23;;;18.40;65.30;;;;;;4899339;29;20205;-70
2023/03/14 11:36:42;;;;;;;16.60;11.50;;;17.50;72.00;;;;;;4899022;29;20205;-67
2023/03/14 11:39:16;;;;;;;5.20;3.10;;;17.90;74.20;;;;;;4898648;29;20564;-67
2023/03/14 11:41:47;;;;;;;3.97;2.93;;;17.50;72.50;;;;;;4898967;29;20203;-67
2023/03/14 11:44:20;;;;;;;4.60;3.20;;;18.00;73.90;;;;;;4898725;29;21023;-68
2023/03/14 11:46:53;;;;;;;9.13;6.10;;;19.00;65.50;;;;;;4898783;29;20269;-67
2023/03/14 11:49:33;;;;;;;4.83;3.03;;;19.70;61.30;;;;;;4899021;29;20209;-67
2023/03/14 11:52:10;;;;;;;6.10;3.10;;;19.60;61.00;;;;;;4898305;29;20677;-68
2023/03/14 11:54:46;;;;;;;4.50;2.47;;;20.20;59.40;;;;;;4898630;29;20224;-67
2023/03/14 11:57:17;;;;;;;6.13;2.57;;;19.80;57.00;;;;;;4898722;29;20207;-68
2023/03/14 11:59:52;;;;;;;6.10;2.60;;;19.20;59.30;;;;;;4898777;29;20231;-67
2023/03/14 12:02:27;;;;;;;6.37;3.83;;;18.70;60.60;;;;;;4898683;29;20209;-66
2023/03/14 12:05:40;;;;;;;5.40;2.83;;;18.00;64.80;;;;;;4898306;29;20205;-69
2023/03/14 12:08:33;;;;;;;5.67;3.27;;;18.00;65.30;;;;;;4898367;29;20240;-67
2023/03/14 12:11:06;;;;;;;9.77;3.07;;;18.30;64.20;;;;;;4898535;29;20686;-67
2023/03/14 12:13:38;;;;;;;4.40;2.07;;;18.30;63.90;;;;;;4898209;29;20197;-68
2023/03/14 12:16:27;;;;;;;7.00;4.13;;;18.70;61.50;;;;;;4898298;29;20206;-68
2023/03/14 12:18:56;;;;;;;4.87;2.77;;;18.00;63.70;;;;;;4898076;29;20197;-70
2023/03/14 12:21:43;;;;;;;5.10;3.00;;;17.60;65.60;;;;;;4897940;29;20200;-68
2023/03/14 12:24:21;;;;;;;7.40;3.07;;;17.60;66.70;;;;;;4897968;29;20192;-69
2023/03/14 12:26:55;;;;;;;5.93;3.87;;;17.50;66.30;;;;;;4898237;29;20199;-69
2023/03/14 12:29:24;;;;;;;4.37;2.63;;;17.20;68.00;;;;;;4897969;29;20238;-66
2023/03/14 12:32:13;;;;;;;4.50;3.00;;;18.10;66.00;;;;;;4898063;29;20205;-68
2023/03/14 12:34:45;;;;;;;4.10;2.87;;;18.50;61.20;;;;;;4897872;29;20262;-67
2023/03/14 12:37:35;;;;;;;4.17;3.47;;;18.10;62.40;;;;;;4897800;29;20199;-67
2023/03/14 12:40:22;;;;;;;5.30;2.70;;;17.90;64.30;;;;;;4897791;29;20205;-68
2023/03/14 12:42:59;;;;;;;8.93;5.33;;;17.70;63.70;;;;;;4890043;29;20214;-67
2023/03/14 12:45:30;;;;;;;4.53;3.17;;;17.50;65.20;;;;;;4879713;29;20207;-67
2023/03/14 12:48:09;;;;;;;3.40;2.40;;;17.40;66.30;;;;;;4879001;29;20221;-67
2023/03/14 12:50:43;;;;;;;7.00;2.97;;;17.10;66.70;;;;;;4888877;29;20214;-66
2023/03/14 12:53:41;;;;;;;5.67;2.97;;;17.20;67.00;;;;;;4896599;29;20203;-68
2023/03/14 12:56:22;;;;;;;6.57;3.17;;;17.20;66.20;;;;;;4897452;29;20214;-66
2023/03/14 12:59:10;;;;;;;7.03;2.83;;;17.10;66.90;;;;;;4897376;29;20729;-68
2023/03/14 13:01:48;;;;;;;5.50;2.30;;;18.40;61.70;;;;;;4895401;29;20247;-67
2023/03/14 13:04:17;;;;;;;4.20;2.50;;;18.00;60.10;;;;;;4897238;29;20254;-67
2023/03/14 13:06:59;;;;;;;4.10;2.70;;;19.50;59.20;;;;;;4897051;29;20679;-67
2023/03/14 13:09:54;;;;;;;3.30;2.03;;;22.00;52.50;;;;;;4893154;29;20283;-67
2023/03/14 13:12:35;;;;;;;4.07;2.07;;;21.40;50.60;;;;;;4878785;29;20294;-67
2023/03/14 13:15:15;;;;;;;4.57;2.40;;;19.90;53.30;;;;;;4878246;29;20212;-67
2023/03/14 13:17:45;;;;;;;4.17;2.60;;;22.50;51.90;;;;;;4878297;29;20275;-67
2023/03/14 13:20:19;;;;;;;3.03;2.10;;;24.60;46.80;;;;;;4878344;29;20215;-67